sensor_id;sensor_type;location;lat;lon;timestamp;temperature;humidity
11826;DHT22;5970;48.094;11.496;2023-08-30T00:00:45;13.20;99.90
11826;DHT22;5970;48.094;11.496;2023-08-30T00:03:12;13.00;99.90
11826;DHT22;5970;48.094;11.496;2023-08-30T00:05:39;13.10;99.90
11826;DHT22;5970;48.094;11.496;2023-08-30T00:08:06;13.40;99.90
11826;DHT22;5970;48.094;11.496;2023-08-30T00:10:33;13.10;99.90
11826;DHT22;5970;48.094;11.496;2023-08-30T00:13:00;12.80;99.90
11826;DHT22;5970;48.094;11.496;2023-08-30T00:15:27;12.90;99.90
11826;DHT22;5970;48.094;11.496;2023-08-30T00:17:54;12.90;99.90
11826;DHT22;5970;48.094;11.496;2023-08-30T00:20:21;13.00;99.90
11826;DHT22;5970;48.094;11.496;2023-08-30T00:22:47;12.90;99.90
11826;DHT22;5970;48.094;11.496;2023-08-30T00:25:17;12.90;99.90
11826;DHT22;5970;48.094;11.496;2023-08-30T00:27:44;13.30;99.90
11826;DHT22;5970;48.094;11.496;2023-08-30T00:30:10;12.80;99.90
11826;DHT22;5970;48.094;11.496;2023-08-30T00:32:38;12.90;99.90
11826;DHT22;5970;48.094;11.496;2023-08-30T00:35:05;12.80;99.90
11826;DHT22;5970;48.094;11.496;2023-08-30T00:37:31;12.90;99.90
11826;DHT22;5970;48.094;11.496;2023-08-30T00:39:58;12.90;99.90
11826;DHT22;5970;48.094;11.496;2023-08-30T00:42:26;14.40;99.90
11826;DHT22;5970;48.094;11.496;2023-08-30T00:44:53;12.90;99.90
11826;DHT22;5970;48.094;11.496;2023-08-30T00:47:20;13.00;99.90
11826;DHT22;5970;48.094;11.496;2023-08-30T00:49:47;13.00;99.90
11826;DHT22;5970;48.094;11.496;2023-08-30T00:52:14;13.10;99.90
11826;DHT22;5970;48.094;11.496;2023-08-30T00:54:41;13.20;99.90
11826;DHT22;5970;48.094;11.496;2023-08-30T00:57:08;13.00;99.90
11826;DHT22;5970;48.094;11.496;2023-08-30T00:59:35;13.10;99.90
11826;DHT22;5970;48.094;11.496;2023-08-30T01:02:02;13.10;99.90
11826;DHT22;5970;48.094;11.496;2023-08-30T01:04:30;13.10;99.90
11826;DHT22;5970;48.094;11.496;2023-08-30T01:06:57;13.10;99.90
11826;DHT22;5970;48.094;11.496;2023-08-30T01:09:24;14.60;99.90
11826;DHT22;5970;48.094;11.496;2023-08-30T01:14:26;13.00;99.90
11826;DHT22;5970;48.094;11.496;2023-08-30T01:16:55;13.00;99.90
11826;DHT22;5970;48.094;11.496;2023-08-30T01:19:42;12.90;99.90
11826;DHT22;5970;48.094;11.496;2023-08-30T01:24:53;13.00;99.90
11826;DHT22;5970;48.094;11.496;2023-08-30T01:27:22;12.80;99.90
11826;DHT22;5970;48.094;11.496;2023-08-30T01:29:50;12.60;99.90
11826;DHT22;5970;48.094;11.496;2023-08-30T01:32:17;12.60;99.90
11826;DHT22;5970;48.094;11.496;2023-08-30T01:34:46;12.50;99.90
11826;DHT22;5970;48.094;11.496;2023-08-30T01:37:14;12.50;99.90
11826;DHT22;5970;48.094;11.496;2023-08-30T01:39:41;13.50;99.90
11826;DHT22;5970;48.094;11.496;2023-08-30T01:42:08;12.40;99.90
11826;DHT22;5970;48.094;11.496;2023-08-30T01:44:35;12.50;99.90
11826;DHT22;5970;48.094;11.496;2023-08-30T01:47:03;12.60;99.90
11826;DHT22;5970;48.094;11.496;2023-08-30T01:49:30;14.10;99.90
11826;DHT22;5970;48.094;11.496;2023-08-30T01:52:00;12.60;99.90
11826;DHT22;5970;48.094;11.496;2023-08-30T01:54:27;12.70;99.90
11826;DHT22;5970;48.094;11.496;2023-08-30T01:56:54;12.80;99.90
11826;DHT22;5970;48.094;11.496;2023-08-30T01:59:21;13.70;99.90
11826;DHT22;5970;48.094;11.496;2023-08-30T02:01:47;12.80;99.90
11826;DHT22;5970;48.094;11.496;2023-08-30T02:04:14;12.80;99.90
11826;DHT22;5970;48.094;11.496;2023-08-30T02:06:54;12.90;99.90
11826;DHT22;5970;48.094;11.496;2023-08-30T02:09:24;12.90;99.90
11826;DHT22;5970;48.094;11.496;2023-08-30T02:11:53;13.00;99.90
11826;DHT22;5970;48.094;11.496;2023-08-30T02:14:20;12.90;99.90
11826;DHT22;5970;48.094;11.496;2023-08-30T02:16:47;12.70;99.90
11826;DHT22;5970;48.094;11.496;2023-08-30T02:19:14;12.70;99.90
11826;DHT22;5970;48.094;11.496;2023-08-30T02:21:47;12.70;99.90
11826;DHT22;5970;48.094;11.496;2023-08-30T02:24:14;12.90;99.90
11826;DHT22;5970;48.094;11.496;2023-08-30T02:26:41;12.70;99.90
11826;DHT22;5970;48.094;11.496;2023-08-30T02:29:08;12.60;99.90
11826;DHT22;5970;48.094;11.496;2023-08-30T02:31:36;12.70;99.90
11826;DHT22;5970;48.094;11.496;2023-08-30T02:34:03;12.60;99.90
11826;DHT22;5970;48.094;11.496;2023-08-30T02:36:29;12.70;99.90
11826;DHT22;5970;48.094;11.496;2023-08-30T02:38:56;13.90;99.90
11826;DHT22;5970;48.094;11.496;2023-08-30T02:41:23;14.80;99.90
11826;DHT22;5970;48.094;11.496;2023-08-30T02:43:49;12.70;99.90
11826;DHT22;5970;48.094;11.496;2023-08-30T02:46:16;12.80;99.90
11826;DHT22;5970;48.094;11.496;2023-08-30T02:48:43;13.70;99.90
11826;DHT22;5970;48.094;11.496;2023-08-30T02:51:10;12.60;99.90
11826;DHT22;5970;48.094;11.496;2023-08-30T02:53:36;12.70;99.90
11826;DHT22;5970;48.094;11.496;2023-08-30T02:56:03;12.70;99.90
11826;DHT22;5970;48.094;11.496;2023-08-30T02:58:29;12.70;99.90
11826;DHT22;5970;48.094;11.496;2023-08-30T03:01:00;12.80;99.90
11826;DHT22;5970;48.094;11.496;2023-08-30T03:03:27;13.50;99.90
11826;DHT22;5970;48.094;11.496;2023-08-30T03:05:53;12.80;99.90
11826;DHT22;5970;48.094;11.496;2023-08-30T03:08:20;12.80;99.90
11826;DHT22;5970;48.094;11.496;2023-08-30T03:10:47;12.90;99.90
11826;DHT22;5970;48.094;11.496;2023-08-30T03:13:13;12.80;99.90
11826;DHT22;5970;48.094;11.496;2023-08-30T03:15:40;13.00;99.90
11826;DHT22;5970;48.094;11.496;2023-08-30T03:18:07;12.90;99.90
11826;DHT22;5970;48.094;11.496;2023-08-30T03:20:34;12.90;99.90
11826;DHT22;5970;48.094;11.496;2023-08-30T03:23:00;13.70;99.90
11826;DHT22;5970;48.094;11.496;2023-08-30T03:25:30;12.90;99.90
11826;DHT22;5970;48.094;11.496;2023-08-30T03:27:57;12.90;99.90
11826;DHT22;5970;48.094;11.496;2023-08-30T03:30:24;13.00;99.90
11826;DHT22;5970;48.094;11.496;2023-08-30T03:32:50;12.90;99.90
11826;DHT22;5970;48.094;11.496;2023-08-30T03:35:17;12.90;99.90
11826;DHT22;5970;48.094;11.496;2023-08-30T03:37:47;12.90;99.90
11826;DHT22;5970;48.094;11.496;2023-08-30T03:40:13;12.80;99.90
11826;DHT22;5970;48.094;11.496;2023-08-30T03:42:40;12.90;99.90
11826;DHT22;5970;48.094;11.496;2023-08-30T03:45:07;12.80;99.90
11826;DHT22;5970;48.094;11.496;2023-08-30T03:47:34;12.90;99.90
11826;DHT22;5970;48.094;11.496;2023-08-30T03:50:00;12.70;99.90
11826;DHT22;5970;48.094;11.496;2023-08-30T03:52:27;12.70;99.90
11826;DHT22;5970;48.094;11.496;2023-08-30T03:54:54;12.70;99.90
11826;DHT22;5970;48.094;11.496;2023-08-30T03:57:21;12.60;99.90
11826;DHT22;5970;48.094;11.496;2023-08-30T03:59:47;13.50;99.90
11826;DHT22;5970;48.094;11.496;2023-08-30T04:02:14;12.80;99.90
11826;DHT22;5970;48.094;11.496;2023-08-30T04:04:40;12.70;99.90
11826;DHT22;5970;48.094;11.496;2023-08-30T04:07:07;12.60;99.90
11826;DHT22;5970;48.094;11.496;2023-08-30T04:09:34;13.10;99.90
11826;DHT22;5970;48.094;11.496;2023-08-30T04:12:01;12.70;99.90
11826;DHT22;5970;48.094;11.496;2023-08-30T04:14:27;12.80;99.90
11826;DHT22;5970;48.094;11.496;2023-08-30T04:16:54;12.70;99.90
11826;DHT22;5970;48.094;11.496;2023-08-30T04:19:21;12.70;99.90
11826;DHT22;5970;48.094;11.496;2023-08-30T04:21:48;12.70;99.90
11826;DHT22;5970;48.094;11.496;2023-08-30T04:24:14;12.70;99.90
11826;DHT22;5970;48.094;11.496;2023-08-30T04:26:41;12.70;99.90
11826;DHT22;5970;48.094;11.496;2023-08-30T04:29:08;12.90;99.90
11826;DHT22;5970;48.094;11.496;2023-08-30T04:31:35;13.30;99.90
11826;DHT22;5970;48.094;11.496;2023-08-30T04:34:02;12.90;99.90
11826;DHT22;5970;48.094;11.496;2023-08-30T04:36:29;12.90;99.90
11826;DHT22;5970;48.094;11.496;2023-08-30T04:38:55;13.00;99.90
11826;DHT22;5970;48.094;11.496;2023-08-30T04:41:28;13.10;99.90
11826;DHT22;5970;48.094;11.496;2023-08-30T04:43:55;13.20;99.90
11826;DHT22;5970;48.094;11.496;2023-08-30T04:46:22;13.20;99.90
11826;DHT22;5970;48.094;11.496;2023-08-30T04:48:48;13.00;99.90
11826;DHT22;5970;48.094;11.496;2023-08-30T04:51:15;13.70;99.90
11826;DHT22;5970;48.094;11.496;2023-08-30T04:53:42;13.10;99.90
11826;DHT22;5970;48.094;11.496;2023-08-30T04:56:10;13.10;99.90
11826;DHT22;5970;48.094;11.496;2023-08-30T04:58:37;13.20;99.90
11826;DHT22;5970;48.094;11.496;2023-08-30T05:01:03;13.20;99.90
11826;DHT22;5970;48.094;11.496;2023-08-30T05:03:31;13.00;99.90
11826;DHT22;5970;48.094;11.496;2023-08-30T05:05:58;13.10;99.90
11826;DHT22;5970;48.094;11.496;2023-08-30T05:08:25;13.00;99.90
11826;DHT22;5970;48.094;11.496;2023-08-30T05:10:55;13.10;99.90
11826;DHT22;5970;48.094;11.496;2023-08-30T05:13:22;13.00;99.90
11826;DHT22;5970;48.094;11.496;2023-08-30T05:15:48;13.10;99.90
11826;DHT22;5970;48.094;11.496;2023-08-30T05:18:15;13.10;99.90
11826;DHT22;5970;48.094;11.496;2023-08-30T05:20:42;12.90;99.90
11826;DHT22;5970;48.094;11.496;2023-08-30T05:23:09;13.10;99.90
11826;DHT22;5970;48.094;11.496;2023-08-30T05:25:35;13.20;99.90
11826;DHT22;5970;48.094;11.496;2023-08-30T05:28:02;13.10;99.90
11826;DHT22;5970;48.094;11.496;2023-08-30T05:30:29;13.00;99.90
11826;DHT22;5970;48.094;11.496;2023-08-30T05:32:56;13.00;99.90
11826;DHT22;5970;48.094;11.496;2023-08-30T05:35:23;13.00;99.90
11826;DHT22;5970;48.094;11.496;2023-08-30T05:37:50;13.80;99.90
11826;DHT22;5970;48.094;11.496;2023-08-30T05:40:17;13.20;99.90
11826;DHT22;5970;48.094;11.496;2023-08-30T05:42:44;13.20;99.90
11826;DHT22;5970;48.094;11.496;2023-08-30T05:45:12;13.60;99.90
11826;DHT22;5970;48.094;11.496;2023-08-30T05:47:38;13.40;99.90
11826;DHT22;5970;48.094;11.496;2023-08-30T05:50:05;13.30;99.90
11826;DHT22;5970;48.094;11.496;2023-08-30T05:52:32;13.50;99.90
11826;DHT22;5970;48.094;11.496;2023-08-30T05:54:59;13.50;99.90
11826;DHT22;5970;48.094;11.496;2023-08-30T05:57:25;13.50;99.90
11826;DHT22;5970;48.094;11.496;2023-08-30T05:59:54;13.80;99.90
11826;DHT22;5970;48.094;11.496;2023-08-30T06:02:20;13.70;99.90
11826;DHT22;5970;48.094;11.496;2023-08-30T06:04:47;13.70;99.90
11826;DHT22;5970;48.094;11.496;2023-08-30T06:07:14;13.80;99.90
11826;DHT22;5970;48.094;11.496;2023-08-30T06:09:40;13.90;99.90
11826;DHT22;5970;48.094;11.496;2023-08-30T06:12:07;13.80;99.90
11826;DHT22;5970;48.094;11.496;2023-08-30T06:14:34;13.70;99.90
11826;DHT22;5970;48.094;11.496;2023-08-30T06:17:01;13.60;99.90
11826;DHT22;5970;48.094;11.496;2023-08-30T06:19:27;14.10;99.90
11826;DHT22;5970;48.094;11.496;2023-08-30T06:21:54;13.70;99.90
11826;DHT22;5970;48.094;11.496;2023-08-30T06:24:21;13.60;99.90
11826;DHT22;5970;48.094;11.496;2023-08-30T06:26:48;13.80;99.90
11826;DHT22;5970;48.094;11.496;2023-08-30T06:29:14;13.70;99.90
11826;DHT22;5970;48.094;11.496;2023-08-30T06:31:41;13.90;99.90
11826;DHT22;5970;48.094;11.496;2023-08-30T06:34:09;14.00;99.90
11826;DHT22;5970;48.094;11.496;2023-08-30T06:36:35;14.10;99.90
11826;DHT22;5970;48.094;11.496;2023-08-30T06:39:02;14.20;99.90
11826;DHT22;5970;48.094;11.496;2023-08-30T06:41:29;13.80;99.90
11826;DHT22;5970;48.094;11.496;2023-08-30T06:43:55;13.70;99.90
11826;DHT22;5970;48.094;11.496;2023-08-30T06:46:23;13.50;99.90
11826;DHT22;5970;48.094;11.496;2023-08-30T06:48:50;13.70;99.90
11826;DHT22;5970;48.094;11.496;2023-08-30T06:51:16;13.60;99.90
11826;DHT22;5970;48.094;11.496;2023-08-30T06:53:43;13.70;99.90
11826;DHT22;5970;48.094;11.496;2023-08-30T06:56:10;13.70;99.90
11826;DHT22;5970;48.094;11.496;2023-08-30T06:58:37;13.80;99.90
11826;DHT22;5970;48.094;11.496;2023-08-30T07:01:04;14.00;99.90
11826;DHT22;5970;48.094;11.496;2023-08-30T07:03:31;14.20;99.90
11826;DHT22;5970;48.094;11.496;2023-08-30T07:05:57;14.20;99.90
11826;DHT22;5970;48.094;11.496;2023-08-30T07:08:24;14.20;99.90
11826;DHT22;5970;48.094;11.496;2023-08-30T07:10:51;14.20;99.90
11826;DHT22;5970;48.094;11.496;2023-08-30T07:13:18;14.60;99.90
11826;DHT22;5970;48.094;11.496;2023-08-30T07:15:44;14.60;99.90
11826;DHT22;5970;48.094;11.496;2023-08-30T07:18:11;14.60;99.90
11826;DHT22;5970;48.094;11.496;2023-08-30T07:20:38;14.60;99.90
11826;DHT22;5970;48.094;11.496;2023-08-30T07:23:05;15.00;99.90
11826;DHT22;5970;48.094;11.496;2023-08-30T07:25:36;14.80;99.90
11826;DHT22;5970;48.094;11.496;2023-08-30T07:28:03;14.90;99.90
11826;DHT22;5970;48.094;11.496;2023-08-30T07:30:30;15.00;99.90
11826;DHT22;5970;48.094;11.496;2023-08-30T07:32:57;14.60;99.90
11826;DHT22;5970;48.094;11.496;2023-08-30T07:35:24;14.60;99.90
11826;DHT22;5970;48.094;11.496;2023-08-30T07:37:50;15.00;99.90
11826;DHT22;5970;48.094;11.496;2023-08-30T07:40:17;15.10;99.90
11826;DHT22;5970;48.094;11.496;2023-08-30T07:42:44;15.20;99.90
11826;DHT22;5970;48.094;11.496;2023-08-30T07:45:10;15.20;99.90
11826;DHT22;5970;48.094;11.496;2023-08-30T07:47:37;15.10;99.90
11826;DHT22;5970;48.094;11.496;2023-08-30T07:50:04;14.80;99.90
11826;DHT22;5970;48.094;11.496;2023-08-30T07:52:31;15.10;99.90
11826;DHT22;5970;48.094;11.496;2023-08-30T07:55:11;15.20;99.90
11826;DHT22;5970;48.094;11.496;2023-08-30T07:57:37;15.40;99.90
11826;DHT22;5970;48.094;11.496;2023-08-30T08:00:04;15.40;99.90
11826;DHT22;5970;48.094;11.496;2023-08-30T08:02:32;15.20;99.90
11826;DHT22;5970;48.094;11.496;2023-08-30T08:04:58;15.30;99.90
11826;DHT22;5970;48.094;11.496;2023-08-30T08:07:25;15.50;99.90
11826;DHT22;5970;48.094;11.496;2023-08-30T08:09:54;15.50;99.90
11826;DHT22;5970;48.094;11.496;2023-08-30T08:12:21;15.50;99.90
11826;DHT22;5970;48.094;11.496;2023-08-30T08:14:48;15.40;99.90
11826;DHT22;5970;48.094;11.496;2023-08-30T08:17:15;15.50;99.90
11826;DHT22;5970;48.094;11.496;2023-08-30T08:19:42;15.90;99.90
11826;DHT22;5970;48.094;11.496;2023-08-30T08:22:10;14.90;99.90
11826;DHT22;5970;48.094;11.496;2023-08-30T08:24:37;15.00;99.90
11826;DHT22;5970;48.094;11.496;2023-08-30T08:27:04;15.20;99.90
11826;DHT22;5970;48.094;11.496;2023-08-30T08:29:32;15.20;99.90
11826;DHT22;5970;48.094;11.496;2023-08-30T08:31:59;15.30;99.90
11826;DHT22;5970;48.094;11.496;2023-08-30T08:34:26;15.40;99.90
11826;DHT22;5970;48.094;11.496;2023-08-30T08:36:53;15.80;99.90
11826;DHT22;5970;48.094;11.496;2023-08-30T08:39:19;15.70;99.90
11826;DHT22;5970;48.094;11.496;2023-08-30T08:41:46;16.50;99.90
11826;DHT22;5970;48.094;11.496;2023-08-30T08:44:13;15.90;99.90
11826;DHT22;5970;48.094;11.496;2023-08-30T08:46:41;16.00;99.90
11826;DHT22;5970;48.094;11.496;2023-08-30T08:49:12;16.50;99.90
11826;DHT22;5970;48.094;11.496;2023-08-30T08:51:40;16.00;99.90
11826;DHT22;5970;48.094;11.496;2023-08-30T08:54:08;16.00;99.90
11826;DHT22;5970;48.094;11.496;2023-08-30T08:56:38;16.10;99.90
11826;DHT22;5970;48.094;11.496;2023-08-30T08:59:05;16.40;99.90
11826;DHT22;5970;48.094;11.496;2023-08-30T09:01:34;16.80;99.90
11826;DHT22;5970;48.094;11.496;2023-08-30T09:04:07;16.90;99.90
11826;DHT22;5970;48.094;11.496;2023-08-30T09:06:34;16.90;99.90
11826;DHT22;5970;48.094;11.496;2023-08-30T09:09:02;17.00;99.90
11826;DHT22;5970;48.094;11.496;2023-08-30T09:11:30;17.30;99.90
11826;DHT22;5970;48.094;11.496;2023-08-30T09:14:16;17.90;99.90
11826;DHT22;5970;48.094;11.496;2023-08-30T09:16:53;18.80;99.90
11826;DHT22;5970;48.094;11.496;2023-08-30T09:19:20;19.60;99.90
11826;DHT22;5970;48.094;11.496;2023-08-30T09:24:18;21.60;99.10
11826;DHT22;5970;48.094;11.496;2023-08-30T09:26:48;22.40;98.00
11826;DHT22;5970;48.094;11.496;2023-08-30T09:31:42;23.60;94.50
11826;DHT22;5970;48.094;11.496;2023-08-30T09:34:09;23.80;93.60
11826;DHT22;5970;48.094;11.496;2023-08-30T09:36:38;24.60;93.20
11826;DHT22;5970;48.094;11.496;2023-08-30T09:39:05;24.00;91.70
11826;DHT22;5970;48.094;11.496;2023-08-30T09:41:32;23.30;93.60
11826;DHT22;5970;48.094;11.496;2023-08-30T09:44:15;22.80;94.90
11826;DHT22;5970;48.094;11.496;2023-08-30T09:49:18;21.30;96.20
11826;DHT22;5970;48.094;11.496;2023-08-30T09:51:44;21.00;97.30
11826;DHT22;5970;48.094;11.496;2023-08-30T09:54:17;21.20;95.70
11826;DHT22;5970;48.094;11.496;2023-08-30T09:56:47;21.50;96.50
11826;DHT22;5970;48.094;11.496;2023-08-30T09:59:14;21.70;96.30
11826;DHT22;5970;48.094;11.496;2023-08-30T10:01:42;22.00;95.70
11826;DHT22;5970;48.094;11.496;2023-08-30T10:04:10;21.60;95.50
11826;DHT22;5970;48.094;11.496;2023-08-30T10:06:37;21.30;96.10
11826;DHT22;5970;48.094;11.496;2023-08-30T10:09:05;20.90;96.70
11826;DHT22;5970;48.094;11.496;2023-08-30T10:11:35;20.60;96.10
11826;DHT22;5970;48.094;11.496;2023-08-30T10:14:06;20.40;96.50
11826;DHT22;5970;48.094;11.496;2023-08-30T10:16:37;19.00;96.70
11826;DHT22;5970;48.094;11.496;2023-08-30T10:19:26;18.90;98.30
11826;DHT22;5970;48.094;11.496;2023-08-30T10:21:53;19.70;97.50
11826;DHT22;5970;48.094;11.496;2023-08-30T10:24:22;20.50;95.00
11826;DHT22;5970;48.094;11.496;2023-08-30T10:27:01;20.70;93.50
11826;DHT22;5970;48.094;11.496;2023-08-30T10:29:30;20.30;94.10
11826;DHT22;5970;48.094;11.496;2023-08-30T10:34:30;20.80;93.70
11826;DHT22;5970;48.094;11.496;2023-08-30T10:36:58;20.30;94.60
11826;DHT22;5970;48.094;11.496;2023-08-30T10:39:35;20.00;95.20
11826;DHT22;5970;48.094;11.496;2023-08-30T10:42:12;19.90;94.60
11826;DHT22;5970;48.094;11.496;2023-08-30T10:44:51;19.80;95.00
11826;DHT22;5970;48.094;11.496;2023-08-30T10:47:38;20.10;96.50
11826;DHT22;5970;48.094;11.496;2023-08-30T10:50:07;20.10;94.40
11826;DHT22;5970;48.094;11.496;2023-08-30T10:52:35;21.00;96.20
11826;DHT22;5970;48.094;11.496;2023-08-30T10:55:05;21.30;94.80
11826;DHT22;5970;48.094;11.496;2023-08-30T10:57:33;20.60;93.70
11826;DHT22;5970;48.094;11.496;2023-08-30T11:02:43;21.40;94.40
11826;DHT22;5970;48.094;11.496;2023-08-30T11:05:10;21.50;93.40
11826;DHT22;5970;48.094;11.496;2023-08-30T11:07:36;22.60;91.90
11826;DHT22;5970;48.094;11.496;2023-08-30T11:10:06;23.70;90.20
11826;DHT22;5970;48.094;11.496;2023-08-30T11:12:33;24.80;91.80
11826;DHT22;5970;48.094;11.496;2023-08-30T11:15:00;24.80;87.10
11826;DHT22;5970;48.094;11.496;2023-08-30T11:17:27;24.60;88.70
11826;DHT22;5970;48.094;11.496;2023-08-30T11:19:58;24.20;91.20
11826;DHT22;5970;48.094;11.496;2023-08-30T11:22:25;24.00;90.40
11826;DHT22;5970;48.094;11.496;2023-08-30T11:24:52;23.50;89.00
11826;DHT22;5970;48.094;11.496;2023-08-30T11:27:18;22.70;90.90
11826;DHT22;5970;48.094;11.496;2023-08-30T11:29:45;21.90;91.30
11826;DHT22;5970;48.094;11.496;2023-08-30T11:32:12;21.20;92.00
11826;DHT22;5970;48.094;11.496;2023-08-30T11:34:38;19.70;93.20
11826;DHT22;5970;48.094;11.496;2023-08-30T11:37:05;19.70;94.60
11826;DHT22;5970;48.094;11.496;2023-08-30T11:39:32;20.00;96.00
11826;DHT22;5970;48.094;11.496;2023-08-30T11:41:59;21.30;93.50
11826;DHT22;5970;48.094;11.496;2023-08-30T11:44:42;23.30;90.60
11826;DHT22;5970;48.094;11.496;2023-08-30T11:47:09;24.20;87.50
11826;DHT22;5970;48.094;11.496;2023-08-30T11:49:36;25.20;90.80
11826;DHT22;5970;48.094;11.496;2023-08-30T11:52:03;26.40;85.30
11826;DHT22;5970;48.094;11.496;2023-08-30T11:54:30;26.80;86.30
11826;DHT22;5970;48.094;11.496;2023-08-30T11:56:57;26.30;82.70
11826;DHT22;5970;48.094;11.496;2023-08-30T11:59:23;25.50;83.80
11826;DHT22;5970;48.094;11.496;2023-08-30T12:01:53;24.40;84.30
11826;DHT22;5970;48.094;11.496;2023-08-30T12:04:20;23.70;87.50
11826;DHT22;5970;48.094;11.496;2023-08-30T12:06:53;22.80;90.00
11826;DHT22;5970;48.094;11.496;2023-08-30T12:09:23;22.10;90.70
11826;DHT22;5970;48.094;11.496;2023-08-30T12:11:50;21.40;90.70
11826;DHT22;5970;48.094;11.496;2023-08-30T12:14:16;21.00;91.70
11826;DHT22;5970;48.094;11.496;2023-08-30T12:16:43;20.70;91.90
11826;DHT22;5970;48.094;11.496;2023-08-30T12:19:12;20.00;91.60
11826;DHT22;5970;48.094;11.496;2023-08-30T12:21:43;20.00;92.80
11826;DHT22;5970;48.094;11.496;2023-08-30T12:24:10;20.10;93.50
11826;DHT22;5970;48.094;11.496;2023-08-30T12:26:37;20.20;93.60
11826;DHT22;5970;48.094;11.496;2023-08-30T12:29:05;20.40;94.70
11826;DHT22;5970;48.094;11.496;2023-08-30T12:31:32;20.60;94.60
11826;DHT22;5970;48.094;11.496;2023-08-30T12:33:59;20.80;94.00
11826;DHT22;5970;48.094;11.496;2023-08-30T12:36:26;21.10;93.10
11826;DHT22;5970;48.094;11.496;2023-08-30T12:38:53;21.20;92.40
11826;DHT22;5970;48.094;11.496;2023-08-30T12:41:20;21.30;92.70
11826;DHT22;5970;48.094;11.496;2023-08-30T12:43:49;21.40;92.70
11826;DHT22;5970;48.094;11.496;2023-08-30T12:46:17;21.70;92.30
11826;DHT22;5970;48.094;11.496;2023-08-30T12:48:43;22.10;91.60
11826;DHT22;5970;48.094;11.496;2023-08-30T12:51:10;23.00;91.30
11826;DHT22;5970;48.094;11.496;2023-08-30T12:53:37;24.10;90.50
11826;DHT22;5970;48.094;11.496;2023-08-30T12:56:04;24.70;87.20
11826;DHT22;5970;48.094;11.496;2023-08-30T12:58:31;24.70;88.20
11826;DHT22;5970;48.094;11.496;2023-08-30T13:00:57;24.40;85.70
11826;DHT22;5970;48.094;11.496;2023-08-30T13:03:24;23.80;84.10
11826;DHT22;5970;48.094;11.496;2023-08-30T13:05:51;23.30;88.00
11826;DHT22;5970;48.094;11.496;2023-08-30T13:08:17;22.70;88.40
11826;DHT22;5970;48.094;11.496;2023-08-30T13:10:44;22.10;90.80
11826;DHT22;5970;48.094;11.496;2023-08-30T13:13:11;21.70;91.00
11826;DHT22;5970;48.094;11.496;2023-08-30T13:15:38;21.20;91.40
11826;DHT22;5970;48.094;11.496;2023-08-30T13:18:04;20.70;91.80
11826;DHT22;5970;48.094;11.496;2023-08-30T13:20:31;20.20;91.70
11826;DHT22;5970;48.094;11.496;2023-08-30T13:22:58;20.00;92.00
11826;DHT22;5970;48.094;11.496;2023-08-30T13:25:24;19.70;92.60
11826;DHT22;5970;48.094;11.496;2023-08-30T13:27:52;19.40;92.90
11826;DHT22;5970;48.094;11.496;2023-08-30T13:30:18;19.30;93.80
11826;DHT22;5970;48.094;11.496;2023-08-30T13:32:45;19.20;93.80
11826;DHT22;5970;48.094;11.496;2023-08-30T13:35:12;19.10;93.80
11826;DHT22;5970;48.094;11.496;2023-08-30T13:37:38;19.10;96.60
11826;DHT22;5970;48.094;11.496;2023-08-30T13:40:05;19.00;96.20
11826;DHT22;5970;48.094;11.496;2023-08-30T13:42:32;18.60;95.70
11826;DHT22;5970;48.094;11.496;2023-08-30T13:45:04;18.20;97.50
11826;DHT22;5970;48.094;11.496;2023-08-30T13:47:32;18.00;98.70
11826;DHT22;5970;48.094;11.496;2023-08-30T13:50:00;17.90;99.50
11826;DHT22;5970;48.094;11.496;2023-08-30T13:52:26;17.90;99.90
11826;DHT22;5970;48.094;11.496;2023-08-30T13:54:55;17.70;99.90
11826;DHT22;5970;48.094;11.496;2023-08-30T13:57:22;17.60;99.90
11826;DHT22;5970;48.094;11.496;2023-08-30T13:59:49;17.50;99.90
11826;DHT22;5970;48.094;11.496;2023-08-30T14:02:16;17.60;99.90
11826;DHT22;5970;48.094;11.496;2023-08-30T14:04:42;17.50;99.90
11826;DHT22;5970;48.094;11.496;2023-08-30T14:07:09;17.50;99.90
11826;DHT22;5970;48.094;11.496;2023-08-30T14:09:38;17.40;99.90
11826;DHT22;5970;48.094;11.496;2023-08-30T14:12:05;17.50;99.90
11826;DHT22;5970;48.094;11.496;2023-08-30T14:14:32;17.50;99.90
11826;DHT22;5970;48.094;11.496;2023-08-30T14:16:59;17.50;99.90
11826;DHT22;5970;48.094;11.496;2023-08-30T14:19:25;17.60;99.90
11826;DHT22;5970;48.094;11.496;2023-08-30T14:21:52;17.80;99.90
11826;DHT22;5970;48.094;11.496;2023-08-30T14:24:21;17.80;99.90
11826;DHT22;5970;48.094;11.496;2023-08-30T14:26:48;18.20;99.90
11826;DHT22;5970;48.094;11.496;2023-08-30T14:29:15;18.30;99.90
11826;DHT22;5970;48.094;11.496;2023-08-30T14:31:41;18.40;99.90
11826;DHT22;5970;48.094;11.496;2023-08-30T14:34:08;18.60;99.90
11826;DHT22;5970;48.094;11.496;2023-08-30T14:36:35;18.80;99.90
11826;DHT22;5970;48.094;11.496;2023-08-30T14:39:02;19.90;99.90
11826;DHT22;5970;48.094;11.496;2023-08-30T14:41:29;19.40;99.90
11826;DHT22;5970;48.094;11.496;2023-08-30T14:43:56;19.50;99.90
11826;DHT22;5970;48.094;11.496;2023-08-30T14:46:23;20.00;99.90
11826;DHT22;5970;48.094;11.496;2023-08-30T14:48:50;19.70;99.90
11826;DHT22;5970;48.094;11.496;2023-08-30T14:51:17;19.80;99.90
11826;DHT22;5970;48.094;11.496;2023-08-30T14:53:43;19.70;99.90
11826;DHT22;5970;48.094;11.496;2023-08-30T14:56:10;19.80;99.90
11826;DHT22;5970;48.094;11.496;2023-08-30T14:58:38;20.00;99.90
11826;DHT22;5970;48.094;11.496;2023-08-30T15:01:05;19.90;99.50
11826;DHT22;5970;48.094;11.496;2023-08-30T15:03:33;20.10;99.80
11826;DHT22;5970;48.094;11.496;2023-08-30T15:06:00;20.30;99.90
11826;DHT22;5970;48.094;11.496;2023-08-30T15:08:27;20.60;99.90
11826;DHT22;5970;48.094;11.496;2023-08-30T15:10:54;20.70;99.50
11826;DHT22;5970;48.094;11.496;2023-08-30T15:13:20;20.70;99.60
11826;DHT22;5970;48.094;11.496;2023-08-30T15:15:47;20.80;99.90
11826;DHT22;5970;48.094;11.496;2023-08-30T15:18:14;20.90;99.90
11826;DHT22;5970;48.094;11.496;2023-08-30T15:20:41;20.90;99.90
11826;DHT22;5970;48.094;11.496;2023-08-30T15:23:11;20.70;97.70
11826;DHT22;5970;48.094;11.496;2023-08-30T15:25:44;20.70;99.60
11826;DHT22;5970;48.094;11.496;2023-08-30T15:28:11;20.70;98.80
11826;DHT22;5970;48.094;11.496;2023-08-30T15:30:37;20.70;98.40
11826;DHT22;5970;48.094;11.496;2023-08-30T15:33:05;20.70;98.70
11826;DHT22;5970;48.094;11.496;2023-08-30T15:35:36;20.70;98.70
11826;DHT22;5970;48.094;11.496;2023-08-30T15:38:03;20.40;98.40
11826;DHT22;5970;48.094;11.496;2023-08-30T15:40:29;20.40;99.20
11826;DHT22;5970;48.094;11.496;2023-08-30T15:42:57;20.50;99.00
11826;DHT22;5970;48.094;11.496;2023-08-30T15:45:24;20.40;99.10
11826;DHT22;5970;48.094;11.496;2023-08-30T15:47:51;20.00;96.50
11826;DHT22;5970;48.094;11.496;2023-08-30T15:50:18;19.80;97.00